sensor_id;sensor_type;location;lat;lon;timestamp;P1;durP1;ratioP1;P2;durP2;ratioP2
72198;SDS011;60103;51.014;16.992;2022-12-08T00:00:09;13.50;;;4.40;;
72198;SDS011;60103;51.014;16.992;2022-12-08T00:02:58;15.20;;;5.30;;
72198;SDS011;60103;51.014;16.992;2022-12-08T00:05:27;12.40;;;5.30;;
72198;SDS011;60103;51.014;16.992;2022-12-08T00:08:15;11.70;;;4.60;;
72198;SDS011;60103;51.014;16.992;2022-12-08T00:11:02;11.80;;;4.00;;
72198;SDS011;60103;51.014;16.992;2022-12-08T00:13:31;10.20;;;3.20;;
72198;SDS011;60103;51.014;16.992;2022-12-08T00:16:00;16.40;;;4.40;;
72198;SDS011;60103;51.014;16.992;2022-12-08T00:18:29;14.80;;;4.80;;
72198;SDS011;60103;51.014;16.992;2022-12-08T00:20:58;13.00;;;4.60;;
72198;SDS011;60103;51.014;16.992;2022-12-08T00:23:26;10.00;;;3.40;;
72198;SDS011;60103;51.014;16.992;2022-12-08T00:25:55;11.10;;;4.30;;
72198;SDS011;60103;51.014;16.992;2022-12-08T00:28:24;13.80;;;5.10;;
72198;SDS011;60103;51.014;16.992;2022-12-08T00:30:53;12.70;;;4.50;;
72198;SDS011;60103;51.014;16.992;2022-12-08T00:33:21;12.60;;;4.80;;
72198;SDS011;60103;51.014;16.992;2022-12-08T00:35:51;14.30;;;4.70;;
72198;SDS011;60103;51.014;16.992;2022-12-08T00:38:20;13.80;;;5.10;;
72198;SDS011;60103;51.014;16.992;2022-12-08T00:40:48;13.00;;;5.10;;
72198;SDS011;60103;51.014;16.992;2022-12-08T00:43:17;11.40;;;4.60;;
72198;SDS011;60103;51.014;16.992;2022-12-08T00:45:46;14.00;;;5.40;;
72198;SDS011;60103;51.014;16.992;2022-12-08T00:48:15;16.20;;;5.90;;
72198;SDS011;60103;51.014;16.992;2022-12-08T00:50:44;16.40;;;6.40;;
72198;SDS011;60103;51.014;16.992;2022-12-08T00:53:12;15.30;;;6.20;;
72198;SDS011;60103;51.014;16.992;2022-12-08T00:55:41;16.40;;;6.90;;
72198;SDS011;60103;51.014;16.992;2022-12-08T00:58:10;14.90;;;5.60;;
72198;SDS011;60103;51.014;16.992;2022-12-08T01:00:40;16.90;;;5.70;;
72198;SDS011;60103;51.014;16.992;2022-12-08T01:03:10;16.50;;;6.60;;
72198;SDS011;60103;51.014;16.992;2022-12-08T01:05:39;14.90;;;5.80;;
72198;SDS011;60103;51.014;16.992;2022-12-08T01:08:08;14.90;;;5.80;;
72198;SDS011;60103;51.014;16.992;2022-12-08T01:10:37;15.30;;;5.80;;
72198;SDS011;60103;51.014;16.992;2022-12-08T01:13:06;16.40;;;6.20;;
72198;SDS011;60103;51.014;16.992;2022-12-08T01:15:35;16.30;;;6.00;;
72198;SDS011;60103;51.014;16.992;2022-12-08T01:18:04;13.80;;;5.30;;
72198;SDS011;60103;51.014;16.992;2022-12-08T01:20:33;15.70;;;6.00;;
72198;SDS011;60103;51.014;16.992;2022-12-08T01:23:02;16.50;;;6.30;;
72198;SDS011;60103;51.014;16.992;2022-12-08T01:25:32;14.00;;;4.70;;
72198;SDS011;60103;51.014;16.992;2022-12-08T01:28:02;14.80;;;5.70;;
72198;SDS011;60103;51.014;16.992;2022-12-08T01:30:31;14.60;;;5.60;;
72198;SDS011;60103;51.014;16.992;2022-12-08T01:33:00;12.70;;;5.10;;
72198;SDS011;60103;51.014;16.992;2022-12-08T01:35:29;14.00;;;5.20;;
72198;SDS011;60103;51.014;16.992;2022-12-08T01:37:58;13.00;;;4.90;;
72198;SDS011;60103;51.014;16.992;2022-12-08T01:40:27;14.00;;;5.60;;
72198;SDS011;60103;51.014;16.992;2022-12-08T01:42:56;15.30;;;5.40;;
72198;SDS011;60103;51.014;16.992;2022-12-08T01:45:25;13.90;;;5.70;;
72198;SDS011;60103;51.014;16.992;2022-12-08T01:48:05;13.60;;;5.20;;
72198;SDS011;60103;51.014;16.992;2022-12-08T01:50:38;13.00;;;5.40;;
72198;SDS011;60103;51.014;16.992;2022-12-08T01:53:09;13.40;;;5.60;;
72198;SDS011;60103;51.014;16.992;2022-12-08T01:55:43;14.30;;;5.70;;
72198;SDS011;60103;51.014;16.992;2022-12-08T01:58:24;15.90;;;5.70;;
72198;SDS011;60103;51.014;16.992;2022-12-08T02:00:55;14.60;;;5.30;;
72198;SDS011;60103;51.014;16.992;2022-12-08T02:03:28;15.00;;;5.50;;
72198;SDS011;60103;51.014;16.992;2022-12-08T02:06:02;14.40;;;5.80;;
72198;SDS011;60103;51.014;16.992;2022-12-08T02:08:31;12.90;;;5.70;;
72198;SDS011;60103;51.014;16.992;2022-12-08T02:10:59;10.60;;;4.90;;
72198;SDS011;60103;51.014;16.992;2022-12-08T02:13:28;14.60;;;5.60;;
72198;SDS011;60103;51.014;16.992;2022-12-08T02:22:09;11.30;;;4.60;;
72198;SDS011;60103;51.014;16.992;2022-12-08T02:30:21;13.30;;;5.00;;
72198;SDS011;60103;51.014;16.992;2022-12-08T02:46:41;12.40;;;5.10;;
72198;SDS011;60103;51.014;16.992;2022-12-08T02:49:14;13.00;;;4.80;;
72198;SDS011;60103;51.014;16.992;2022-12-08T02:51:43;11.00;;;4.80;;
72198;SDS011;60103;51.014;16.992;2022-12-08T02:54:13;12.60;;;5.10;;
72198;SDS011;60103;51.014;16.992;2022-12-08T03:02:45;12.40;;;4.50;;
72198;SDS011;60103;51.014;16.992;2022-12-08T03:11:20;10.00;;;3.90;;
72198;SDS011;60103;51.014;16.992;2022-12-08T03:13:53;10.20;;;4.70;;
72198;SDS011;60103;51.014;16.992;2022-12-08T03:16:28;11.30;;;5.00;;
72198;SDS011;60103;51.014;16.992;2022-12-08T03:18:59;10.40;;;4.00;;
72198;SDS011;60103;51.014;16.992;2022-12-08T03:21:31;11.30;;;4.50;;
72198;SDS011;60103;51.014;16.992;2022-12-08T03:24:02;12.10;;;5.10;;
72198;SDS011;60103;51.014;16.992;2022-12-08T03:26:40;11.00;;;4.30;;
72198;SDS011;60103;51.014;16.992;2022-12-08T03:29:14;10.70;;;4.20;;
72198;SDS011;60103;51.014;16.992;2022-12-08T03:34:50;10.20;;;4.10;;
72198;SDS011;60103;51.014;16.992;2022-12-08T03:37:20;9.30;;;3.60;;
72198;SDS011;60103;51.014;16.992;2022-12-08T03:39:49;12.50;;;4.40;;
72198;SDS011;60103;51.014;16.992;2022-12-08T03:42:18;12.60;;;5.00;;
72198;SDS011;60103;51.014;16.992;2022-12-08T03:44:47;10.50;;;4.30;;
72198;SDS011;60103;51.014;16.992;2022-12-08T03:47:15;10.80;;;4.80;;
72198;SDS011;60103;51.014;16.992;2022-12-08T03:49:44;12.40;;;5.50;;
72198;SDS011;60103;51.014;16.992;2022-12-08T03:52:13;13.80;;;5.40;;
72198;SDS011;60103;51.014;16.992;2022-12-08T03:54:41;12.00;;;5.20;;
72198;SDS011;60103;51.014;16.992;2022-12-08T03:57:10;12.20;;;5.20;;
72198;SDS011;60103;51.014;16.992;2022-12-08T03:59:39;12.10;;;5.20;;
72198;SDS011;60103;51.014;16.992;2022-12-08T04:02:07;14.00;;;5.40;;
72198;SDS011;60103;51.014;16.992;2022-12-08T04:04:36;11.80;;;4.60;;
72198;SDS011;60103;51.014;16.992;2022-12-08T04:07:06;11.70;;;3.90;;
72198;SDS011;60103;51.014;16.992;2022-12-08T04:09:35;10.60;;;3.70;;
72198;SDS011;60103;51.014;16.992;2022-12-08T04:12:04;10.40;;;4.30;;
72198;SDS011;60103;51.014;16.992;2022-12-08T04:14:33;12.50;;;4.60;;
72198;SDS011;60103;51.014;16.992;2022-12-08T04:17:01;11.60;;;4.40;;
72198;SDS011;60103;51.014;16.992;2022-12-08T04:19:30;11.70;;;5.20;;
72198;SDS011;60103;51.014;16.992;2022-12-08T04:21:59;12.20;;;4.50;;
72198;SDS011;60103;51.014;16.992;2022-12-08T04:24:28;11.10;;;4.70;;
72198;SDS011;60103;51.014;16.992;2022-12-08T04:26:56;11.80;;;5.20;;
72198;SDS011;60103;51.014;16.992;2022-12-08T04:29:25;12.80;;;5.20;;
72198;SDS011;60103;51.014;16.992;2022-12-08T04:31:54;11.40;;;5.00;;
72198;SDS011;60103;51.014;16.992;2022-12-08T04:34:23;12.00;;;4.90;;
72198;SDS011;60103;51.014;16.992;2022-12-08T04:36:53;12.00;;;5.30;;
72198;SDS011;60103;51.014;16.992;2022-12-08T04:39:21;11.60;;;5.20;;
72198;SDS011;60103;51.014;16.992;2022-12-08T04:41:51;13.90;;;5.60;;
72198;SDS011;60103;51.014;16.992;2022-12-08T04:44:20;14.40;;;6.20;;
72198;SDS011;60103;51.014;16.992;2022-12-08T04:46:48;16.60;;;6.20;;
72198;SDS011;60103;51.014;16.992;2022-12-08T04:49:17;13.30;;;5.50;;
72198;SDS011;60103;51.014;16.992;2022-12-08T04:51:47;12.40;;;5.90;;
72198;SDS011;60103;51.014;16.992;2022-12-08T04:54:16;12.00;;;5.80;;
72198;SDS011;60103;51.014;16.992;2022-12-08T04:56:44;14.00;;;5.70;;
72198;SDS011;60103;51.014;16.992;2022-12-08T04:59:13;13.70;;;5.60;;
72198;SDS011;60103;51.014;16.992;2022-12-08T05:01:42;12.50;;;5.50;;
72198;SDS011;60103;51.014;16.992;2022-12-08T05:04:11;11.60;;;4.80;;
72198;SDS011;60103;51.014;16.992;2022-12-08T05:06:39;12.90;;;5.40;;
72198;SDS011;60103;51.014;16.992;2022-12-08T05:09:08;14.40;;;6.30;;
72198;SDS011;60103;51.014;16.992;2022-12-08T05:11:37;9.00;;;3.70;;
72198;SDS011;60103;51.014;16.992;2022-12-08T05:14:17;12.50;;;5.50;;
72198;SDS011;60103;51.014;16.992;2022-12-08T05:16:46;12.20;;;5.20;;
72198;SDS011;60103;51.014;16.992;2022-12-08T05:19:15;11.00;;;4.10;;
72198;SDS011;60103;51.014;16.992;2022-12-08T05:21:45;9.70;;;3.40;;
72198;SDS011;60103;51.014;16.992;2022-12-08T05:24:13;14.10;;;5.10;;
72198;SDS011;60103;51.014;16.992;2022-12-08T05:26:42;13.00;;;5.30;;
72198;SDS011;60103;51.014;16.992;2022-12-08T05:29:11;15.60;;;5.80;;
72198;SDS011;60103;51.014;16.992;2022-12-08T05:31:40;16.20;;;6.60;;
72198;SDS011;60103;51.014;16.992;2022-12-08T05:34:08;12.60;;;5.60;;
72198;SDS011;60103;51.014;16.992;2022-12-08T05:36:37;12.40;;;4.60;;
72198;SDS011;60103;51.014;16.992;2022-12-08T05:39:06;11.90;;;4.60;;
72198;SDS011;60103;51.014;16.992;2022-12-08T05:41:35;11.40;;;5.00;;
72198;SDS011;60103;51.014;16.992;2022-12-08T05:44:04;12.00;;;4.30;;
72198;SDS011;60103;51.014;16.992;2022-12-08T05:46:33;12.50;;;5.10;;
72198;SDS011;60103;51.014;16.992;2022-12-08T05:49:02;11.90;;;5.10;;
72198;SDS011;60103;51.014;16.992;2022-12-08T05:51:31;11.80;;;4.90;;
72198;SDS011;60103;51.014;16.992;2022-12-08T05:54:00;12.30;;;5.60;;
72198;SDS011;60103;51.014;16.992;2022-12-08T05:56:29;14.50;;;4.40;;
72198;SDS011;60103;51.014;16.992;2022-12-08T05:58:58;11.40;;;4.80;;
72198;SDS011;60103;51.014;16.992;2022-12-08T06:01:28;13.30;;;5.80;;
72198;SDS011;60103;51.014;16.992;2022-12-08T06:03:58;11.00;;;4.40;;
72198;SDS011;60103;51.014;16.992;2022-12-08T06:06:28;12.90;;;5.60;;
72198;SDS011;60103;51.014;16.992;2022-12-08T06:08:57;13.00;;;5.20;;
72198;SDS011;60103;51.014;16.992;2022-12-08T06:11:28;13.40;;;5.90;;
72198;SDS011;60103;51.014;16.992;2022-12-08T06:13:57;12.40;;;5.20;;
72198;SDS011;60103;51.014;16.992;2022-12-08T06:16:27;11.70;;;5.30;;
72198;SDS011;60103;51.014;16.992;2022-12-08T06:18:56;13.30;;;5.80;;
72198;SDS011;60103;51.014;16.992;2022-12-08T06:21:26;12.40;;;5.10;;
72198;SDS011;60103;51.014;16.992;2022-12-08T06:23:54;13.70;;;6.70;;
72198;SDS011;60103;51.014;16.992;2022-12-08T06:26:23;13.20;;;4.80;;
72198;SDS011;60103;51.014;16.992;2022-12-08T06:28:52;12.60;;;5.40;;
72198;SDS011;60103;51.014;16.992;2022-12-08T06:31:23;13.80;;;6.10;;
72198;SDS011;60103;51.014;16.992;2022-12-08T06:33:53;12.60;;;5.80;;
72198;SDS011;60103;51.014;16.992;2022-12-08T06:36:23;13.10;;;5.30;;
72198;SDS011;60103;51.014;16.992;2022-12-08T06:38:53;14.40;;;6.00;;
72198;SDS011;60103;51.014;16.992;2022-12-08T06:41:23;14.40;;;5.80;;
72198;SDS011;60103;51.014;16.992;2022-12-08T06:43:54;12.70;;;5.00;;
72198;SDS011;60103;51.014;16.992;2022-12-08T06:46:25;13.20;;;4.80;;
72198;SDS011;60103;51.014;16.992;2022-12-08T06:48:54;13.70;;;5.70;;
72198;SDS011;60103;51.014;16.992;2022-12-08T06:51:23;16.00;;;5.60;;
72198;SDS011;60103;51.014;16.992;2022-12-08T06:53:53;13.40;;;5.40;;
72198;SDS011;60103;51.014;16.992;2022-12-08T06:56:22;11.30;;;4.00;;
72198;SDS011;60103;51.014;16.992;2022-12-08T06:58:55;11.80;;;4.80;;
72198;SDS011;60103;51.014;16.992;2022-12-08T07:01:24;11.10;;;5.10;;
72198;SDS011;60103;51.014;16.992;2022-12-08T07:03:53;13.30;;;6.00;;
72198;SDS011;60103;51.014;16.992;2022-12-08T07:06:22;10.00;;;3.90;;
72198;SDS011;60103;51.014;16.992;2022-12-08T07:08:51;11.60;;;4.90;;
72198;SDS011;60103;51.014;16.992;2022-12-08T07:11:20;12.10;;;5.20;;
72198;SDS011;60103;51.014;16.992;2022-12-08T07:13:49;13.90;;;5.70;;
72198;SDS011;60103;51.014;16.992;2022-12-08T07:16:18;12.50;;;5.10;;
72198;SDS011;60103;51.014;16.992;2022-12-08T07:18:47;13.00;;;5.50;;
72198;SDS011;60103;51.014;16.992;2022-12-08T07:21:17;11.20;;;5.10;;
72198;SDS011;60103;51.014;16.992;2022-12-08T07:23:47;12.30;;;5.80;;
72198;SDS011;60103;51.014;16.992;2022-12-08T07:26:24;14.20;;;5.80;;
72198;SDS011;60103;51.014;16.992;2022-12-08T07:28:54;11.60;;;5.30;;
72198;SDS011;60103;51.014;16.992;2022-12-08T07:31:23;11.40;;;4.30;;
72198;SDS011;60103;51.014;16.992;2022-12-08T07:33:54;13.90;;;6.20;;
72198;SDS011;60103;51.014;16.992;2022-12-08T07:36:24;12.40;;;5.70;;
72198;SDS011;60103;51.014;16.992;2022-12-08T07:38:53;13.60;;;5.90;;
72198;SDS011;60103;51.014;16.992;2022-12-08T07:41:24;13.40;;;5.70;;
72198;SDS011;60103;51.014;16.992;2022-12-08T07:43:54;12.80;;;5.50;;
72198;SDS011;60103;51.014;16.992;2022-12-08T07:46:24;14.40;;;5.70;;
72198;SDS011;60103;51.014;16.992;2022-12-08T07:48:54;13.70;;;5.20;;
72198;SDS011;60103;51.014;16.992;2022-12-08T07:51:26;13.60;;;5.20;;
72198;SDS011;60103;51.014;16.992;2022-12-08T07:53:55;14.40;;;6.00;;
72198;SDS011;60103;51.014;16.992;2022-12-08T07:56:23;14.50;;;5.50;;
72198;SDS011;60103;51.014;16.992;2022-12-08T07:58:53;13.50;;;5.60;;
72198;SDS011;60103;51.014;16.992;2022-12-08T08:01:24;11.90;;;4.40;;
72198;SDS011;60103;51.014;16.992;2022-12-08T08:03:56;12.20;;;5.20;;
72198;SDS011;60103;51.014;16.992;2022-12-08T08:06:29;11.10;;;4.70;;
72198;SDS011;60103;51.014;16.992;2022-12-08T08:08:59;13.00;;;5.30;;
72198;SDS011;60103;51.014;16.992;2022-12-08T08:11:28;11.90;;;4.60;;
72198;SDS011;60103;51.014;16.992;2022-12-08T08:13:57;9.80;;;4.00;;
72198;SDS011;60103;51.014;16.992;2022-12-08T08:16:26;14.20;;;4.60;;
72198;SDS011;60103;51.014;16.992;2022-12-08T08:19:03;11.10;;;4.70;;
72198;SDS011;60103;51.014;16.992;2022-12-08T08:21:32;10.10;;;4.10;;
72198;SDS011;60103;51.014;16.992;2022-12-08T08:24:13;11.70;;;4.90;;
72198;SDS011;60103;51.014;16.992;2022-12-08T08:26:42;9.90;;;3.50;;
72198;SDS011;60103;51.014;16.992;2022-12-08T08:29:12;11.40;;;4.70;;
72198;SDS011;60103;51.014;16.992;2022-12-08T08:31:43;10.70;;;4.50;;
72198;SDS011;60103;51.014;16.992;2022-12-08T08:34:13;12.80;;;5.50;;
72198;SDS011;60103;51.014;16.992;2022-12-08T08:36:43;11.20;;;4.10;;
72198;SDS011;60103;51.014;16.992;2022-12-08T08:39:12;11.90;;;4.60;;
72198;SDS011;60103;51.014;16.992;2022-12-08T08:41:41;11.60;;;5.20;;
72198;SDS011;60103;51.014;16.992;2022-12-08T08:44:11;11.10;;;4.60;;
72198;SDS011;60103;51.014;16.992;2022-12-08T08:46:42;11.80;;;4.50;;
72198;SDS011;60103;51.014;16.992;2022-12-08T08:49:11;11.20;;;4.50;;
72198;SDS011;60103;51.014;16.992;2022-12-08T08:51:40;10.50;;;4.50;;
72198;SDS011;60103;51.014;16.992;2022-12-08T08:54:10;11.30;;;4.70;;
72198;SDS011;60103;51.014;16.992;2022-12-08T08:56:39;11.30;;;4.80;;
72198;SDS011;60103;51.014;16.992;2022-12-08T08:59:09;11.50;;;4.50;;
72198;SDS011;60103;51.014;16.992;2022-12-08T09:01:38;11.40;;;5.10;;
72198;SDS011;60103;51.014;16.992;2022-12-08T09:04:08;11.30;;;4.90;;
72198;SDS011;60103;51.014;16.992;2022-12-08T09:06:37;12.80;;;6.20;;
72198;SDS011;60103;51.014;16.992;2022-12-08T09:09:06;15.10;;;6.10;;
72198;SDS011;60103;51.014;16.992;2022-12-08T09:11:35;12.10;;;4.30;;
72198;SDS011;60103;51.014;16.992;2022-12-08T09:14:05;11.70;;;4.90;;
72198;SDS011;60103;51.014;16.992;2022-12-08T09:16:34;11.50;;;5.20;;
72198;SDS011;60103;51.014;16.992;2022-12-08T09:19:09;12.20;;;5.40;;
72198;SDS011;60103;51.014;16.992;2022-12-08T09:21:38;10.50;;;4.80;;
72198;SDS011;60103;51.014;16.992;2022-12-08T09:24:09;13.10;;;5.80;;
72198;SDS011;60103;51.014;16.992;2022-12-08T09:26:43;10.10;;;4.30;;
72198;SDS011;60103;51.014;16.992;2022-12-08T09:29:12;10.20;;;4.30;;
72198;SDS011;60103;51.014;16.992;2022-12-08T09:31:42;11.50;;;5.30;;
72198;SDS011;60103;51.014;16.992;2022-12-08T09:34:12;13.10;;;5.60;;
72198;SDS011;60103;51.014;16.992;2022-12-08T09:36:41;10.10;;;4.10;;
72198;SDS011;60103;51.014;16.992;2022-12-08T09:39:10;11.20;;;4.80;;
72198;SDS011;60103;51.014;16.992;2022-12-08T09:41:43;10.70;;;4.90;;
72198;SDS011;60103;51.014;16.992;2022-12-08T09:44:28;10.60;;;4.20;;
72198;SDS011;60103;51.014;16.992;2022-12-08T09:47:02;11.60;;;5.00;;
72198;SDS011;60103;51.014;16.992;2022-12-08T09:52:32;11.40;;;4.70;;
72198;SDS011;60103;51.014;16.992;2022-12-08T09:55:23;11.10;;;4.90;;
72198;SDS011;60103;51.014;16.992;2022-12-08T09:57:59;11.90;;;4.90;;
72198;SDS011;60103;51.014;16.992;2022-12-08T10:00:30;12.30;;;5.20;;
72198;SDS011;60103;51.014;16.992;2022-12-08T10:02:59;12.10;;;5.50;;
72198;SDS011;60103;51.014;16.992;2022-12-08T10:05:28;14.30;;;6.10;;
72198;SDS011;60103;51.014;16.992;2022-12-08T10:08:19;12.00;;;5.40;;
72198;SDS011;60103;51.014;16.992;2022-12-08T10:10:58;11.10;;;4.40;;
72198;SDS011;60103;51.014;16.992;2022-12-08T10:13:42;10.00;;;3.80;;
72198;SDS011;60103;51.014;16.992;2022-12-08T10:19:10;10.20;;;3.90;;
72198;SDS011;60103;51.014;16.992;2022-12-08T10:21:42;10.40;;;4.00;;
72198;SDS011;60103;51.014;16.992;2022-12-08T10:24:14;11.40;;;4.40;;
72198;SDS011;60103;51.014;16.992;2022-12-08T10:26:46;9.50;;;3.90;;
72198;SDS011;60103;51.014;16.992;2022-12-08T10:29:16;12.30;;;4.40;;
72198;SDS011;60103;51.014;16.992;2022-12-08T10:31:46;9.70;;;3.80;;
72198;SDS011;60103;51.014;16.992;2022-12-08T10:34:17;11.30;;;4.30;;
72198;SDS011;60103;51.014;16.992;2022-12-08T10:39:37;10.40;;;3.80;;
72198;SDS011;60103;51.014;16.992;2022-12-08T10:44:58;10.90;;;3.80;;
72198;SDS011;60103;51.014;16.992;2022-12-08T10:47:34;11.20;;;4.30;;
72198;SDS011;60103;51.014;16.992;2022-12-08T10:50:07;10.20;;;4.40;;
72198;SDS011;60103;51.014;16.992;2022-12-08T10:52:39;8.90;;;3.60;;
72198;SDS011;60103;51.014;16.992;2022-12-08T10:55:15;10.70;;;4.20;;
72198;SDS011;60103;51.014;16.992;2022-12-08T10:57:46;12.10;;;5.40;;
72198;SDS011;60103;51.014;16.992;2022-12-08T11:00:25;11.40;;;4.90;;
72198;SDS011;60103;51.014;16.992;2022-12-08T11:02:57;13.40;;;5.40;;
72198;SDS011;60103;51.014;16.992;2022-12-08T11:05:30;11.20;;;5.20;;
72198;SDS011;60103;51.014;16.992;2022-12-08T11:08:00;12.50;;;5.40;;
72198;SDS011;60103;51.014;16.992;2022-12-08T11:10:35;11.40;;;4.70;;
72198;SDS011;60103;51.014;16.992;2022-12-08T11:13:21;10.90;;;4.50;;
72198;SDS011;60103;51.014;16.992;2022-12-08T11:15:52;12.90;;;5.30;;
72198;SDS011;60103;51.014;16.992;2022-12-08T11:18:29;11.70;;;5.10;;
72198;SDS011;60103;51.014;16.992;2022-12-08T11:21:13;10.70;;;4.80;;
72198;SDS011;60103;51.014;16.992;2022-12-08T11:23:48;14.50;;;5.70;;
72198;SDS011;60103;51.014;16.992;2022-12-08T11:28:58;11.10;;;4.90;;
72198;SDS011;60103;51.014;16.992;2022-12-08T11:31:32;12.80;;;5.30;;
72198;SDS011;60103;51.014;16.992;2022-12-08T11:34:04;10.70;;;4.50;;
72198;SDS011;60103;51.014;16.992;2022-12-08T11:36:34;13.30;;;5.20;;
72198;SDS011;60103;51.014;16.992;2022-12-08T11:39:04;12.10;;;5.10;;
72198;SDS011;60103;51.014;16.992;2022-12-08T11:41:37;11.60;;;5.30;;
72198;SDS011;60103;51.014;16.992;2022-12-08T11:44:15;12.30;;;5.10;;
72198;SDS011;60103;51.014;16.992;2022-12-08T11:46:53;12.20;;;5.50;;
72198;SDS011;60103;51.014;16.992;2022-12-08T11:49:43;12.40;;;5.30;;
72198;SDS011;60103;51.014;16.992;2022-12-08T11:55:37;12.60;;;5.70;;
72198;SDS011;60103;51.014;16.992;2022-12-08T12:01:13;9.90;;;4.10;;
72198;SDS011;60103;51.014;16.992;2022-12-08T12:04:36;7.80;;;2.20;;
72198;SDS011;60103;51.014;16.992;2022-12-08T12:06:48;12.00;;;4.20;;
72198;SDS011;60103;51.014;16.992;2022-12-08T12:15:16;10.20;;;4.50;;
72198;SDS011;60103;51.014;16.992;2022-12-08T12:20:37;13.70;;;5.40;;
72198;SDS011;60103;51.014;16.992;2022-12-08T12:23:15;13.00;;;5.10;;
72198;SDS011;60103;51.014;16.992;2022-12-08T12:25:59;12.30;;;5.10;;
72198;SDS011;60103;51.014;16.992;2022-12-08T12:28:49;11.50;;;4.70;;
72198;SDS011;60103;51.014;16.992;2022-12-08T12:31:22;12.40;;;4.70;;
72198;SDS011;60103;51.014;16.992;2022-12-08T12:34:22;11.00;;;4.10;;
72198;SDS011;60103;51.014;16.992;2022-12-08T12:37:19;10.00;;;4.30;;
72198;SDS011;60103;51.014;16.992;2022-12-08T12:39:59;11.60;;;4.30;;
72198;SDS011;60103;51.014;16.992;2022-12-08T12:47:49;11.80;;;4.80;;
72198;SDS011;60103;51.014;16.992;2022-12-08T12:55:59;15.00;;;6.10;;
72198;SDS011;60103;51.014;16.992;2022-12-08T13:06:41;12.40;;;5.80;;
72198;SDS011;60103;51.014;16.992;2022-12-08T13:09:19;10.80;;;4.50;;
72198;SDS011;60103;51.014;16.992;2022-12-08T13:11:55;12.60;;;5.10;;
72198;SDS011;60103;51.014;16.992;2022-12-08T13:14:30;14.30;;;6.10;;
72198;SDS011;60103;51.014;16.992;2022-12-08T13:17:01;11.00;;;4.80;;
72198;SDS011;60103;51.014;16.992;2022-12-08T13:19:34;10.90;;;4.30;;
72198;SDS011;60103;51.014;16.992;2022-12-08T13:22:44;13.60;;;5.70;;
72198;SDS011;60103;51.014;16.992;2022-12-08T13:31:01;13.70;;;5.30;;
72198;SDS011;60103;51.014;16.992;2022-12-08T13:33:36;11.50;;;5.00;;
72198;SDS011;60103;51.014;16.992;2022-12-08T13:36:10;13.20;;;5.10;;
72198;SDS011;60103;51.014;16.992;2022-12-08T13:38:46;13.80;;;5.50;;
72198;SDS011;60103;51.014;16.992;2022-12-08T13:41:19;10.80;;;4.70;;
72198;SDS011;60103;51.014;16.992;2022-12-08T13:43:51;12.80;;;5.80;;
72198;SDS011;60103;51.014;16.992;2022-12-08T13:46:50;14.80;;;6.30;;
72198;SDS011;60103;51.014;16.992;2022-12-08T13:49:43;12.90;;;5.50;;
72198;SDS011;60103;51.014;16.992;2022-12-08T13:53:04;14.40;;;5.80;;
72198;SDS011;60103;51.014;16.992;2022-12-08T13:56:02;13.20;;;6.30;;
72198;SDS011;60103;51.014;16.992;2022-12-08T13:59:05;13.00;;;5.10;;
72198;SDS011;60103;51.014;16.992;2022-12-08T14:01:50;11.40;;;5.00;;
72198;SDS011;60103;51.014;16.992;2022-12-08T14:04:20;13.20;;;5.90;;
72198;SDS011;60103;51.014;16.992;2022-12-08T14:07:10;13.30;;;5.50;;
72198;SDS011;60103;51.014;16.992;2022-12-08T14:09:39;11.60;;;4.90;;
72198;SDS011;60103;51.014;16.992;2022-12-08T14:14:49;12.50;;;5.20;;
72198;SDS011;60103;51.014;16.992;2022-12-08T14:17:33;14.60;;;6.00;;
72198;SDS011;60103;51.014;16.992;2022-12-08T14:22:40;13.70;;;5.80;;
72198;SDS011;60103;51.014;16.992;2022-12-08T14:25:13;15.60;;;5.90;;
72198;SDS011;60103;51.014;16.992;2022-12-08T14:27:45;14.30;;;6.50;;
72198;SDS011;60103;51.014;16.992;2022-12-08T14:30:19;15.60;;;6.80;;
72198;SDS011;60103;51.014;16.992;2022-12-08T14:32:59;12.50;;;5.10;;
72198;SDS011;60103;51.014;16.992;2022-12-08T14:35:29;15.20;;;6.50;;
72198;SDS011;60103;51.014;16.992;2022-12-08T14:38:17;17.80;;;7.10;;
72198;SDS011;60103;51.014;16.992;2022-12-08T14:41:04;16.20;;;6.70;;
72198;SDS011;60103;51.014;16.992;2022-12-08T14:43:35;19.70;;;6.80;;
72198;SDS011;60103;51.014;16.992;2022-12-08T14:46:16;15.70;;;6.80;;
72198;SDS011;60103;51.014;16.992;2022-12-08T14:48:49;15.40;;;6.60;;
72198;SDS011;60103;51.014;16.992;2022-12-08T14:51:30;15.30;;;6.40;;
72198;SDS011;60103;51.014;16.992;2022-12-08T14:54:11;16.00;;;6.60;;
72198;SDS011;60103;51.014;16.992;2022-12-08T14:56:51;18.30;;;7.30;;
72198;SDS011;60103;51.014;16.992;2022-12-08T14:59:26;18.10;;;6.60;;
72198;SDS011;60103;51.014;16.992;2022-12-08T15:04:48;18.00;;;7.70;;
72198;SDS011;60103;51.014;16.992;2022-12-08T15:07:24;19.80;;;8.10;;
72198;SDS011;60103;51.014;16.992;2022-12-08T15:10:07;18.70;;;8.00;;
72198;SDS011;60103;51.014;16.992;2022-12-08T15:12:37;21.40;;;7.60;;
72198;SDS011;60103;51.014;16.992;2022-12-08T15:17:40;16.50;;;6.90;;
72198;SDS011;60103;51.014;16.992;2022-12-08T15:23:02;16.20;;;6.50;;
72198;SDS011;60103;51.014;16.992;2022-12-08T15:25:31;14.90;;;6.10;;
72198;SDS011;60103;51.014;16.992;2022-12-08T15:28:01;13.20;;;6.00;;
72198;SDS011;60103;51.014;16.992;2022-12-08T15:30:29;14.30;;;6.50;;
72198;SDS011;60103;51.014;16.992;2022-12-08T15:32:59;16.10;;;7.20;;
72198;SDS011;60103;51.014;16.992;2022-12-08T15:35:28;18.10;;;8.40;;
72198;SDS011;60103;51.014;16.992;2022-12-08T15:37:58;21.50;;;9.10;;
72198;SDS011;60103;51.014;16.992;2022-12-08T15:40:27;19.40;;;8.50;;
72198;SDS011;60103;51.014;16.992;2022-12-08T15:42:56;18.60;;;7.80;;
72198;SDS011;60103;51.014;16.992;2022-12-08T15:45:27;19.60;;;8.10;;
72198;SDS011;60103;51.014;16.992;2022-12-08T15:47:58;23.70;;;9.20;;
72198;SDS011;60103;51.014;16.992;2022-12-08T15:50:28;20.50;;;9.00;;
72198;SDS011;60103;51.014;16.992;2022-12-08T15:52:58;22.40;;;8.20;;
72198;SDS011;60103;51.014;16.992;2022-12-08T15:55:27;20.70;;;6.90;;
72198;SDS011;60103;51.014;16.992;2022-12-08T15:57:59;19.50;;;7.40;;
72198;SDS011;60103;51.014;16.992;2022-12-08T16:00:48;23.30;;;8.20;;
72198;SDS011;60103;51.014;16.992;2022-12-08T16:03:28;19.80;;;7.40;;
72198;SDS011;60103;51.014;16.992;2022-12-08T16:06:18;17.10;;;6.50;;
72198;SDS011;60103;51.014;16.992;2022-12-08T16:09:18;20.50;;;7.50;;
72198;SDS011;60103;51.014;16.992;2022-12-08T16:11:51;16.00;;;5.90;;
72198;SDS011;60103;51.014;16.992;2022-12-08T16:14:39;19.40;;;7.60;;
72198;SDS011;60103;51.014;16.992;2022-12-08T16:17:32;20.70;;;8.50;;
72198;SDS011;60103;51.014;16.992;2022-12-08T16:20:03;21.90;;;8.50;;
72198;SDS011;60103;51.014;16.992;2022-12-08T16:22:39;19.50;;;8.60;;
72198;SDS011;60103;51.014;16.992;2022-12-08T16:25:26;20.60;;;8.40;;
72198;SDS011;60103;51.014;16.992;2022-12-08T16:28:16;21.70;;;8.80;;
72198;SDS011;60103;51.014;16.992;2022-12-08T16:31:06;27.20;;;10.40;;
72198;SDS011;60103;51.014;16.992;2022-12-08T16:33:42;22.80;;;9.50;;
72198;SDS011;60103;51.014;16.992;2022-12-08T16:36:11;23.40;;;9.70;;
72198;SDS011;60103;51.014;16.992;2022-12-08T16:38:40;22.20;;;9.50;;
72198;SDS011;60103;51.014;16.992;2022-12-08T16:41:12;21.40;;;9.60;;